Time;durP1;ratioP1;P1;durP2;ratioP2;P2;SDS_P1;SDS_P2;PMS_P1;PMS_P2;Temp;Humidity;BMP_temperature;BMP_pressure;BME280_temperature;BME280_humidity;BME280_pressure;Samples;Min_cycle;Max_cycle;Signal;HPM_P1;HPM_P2
2022/01/16 00:01:57;;;;;;;80.33;26.20;;;;;;;-1.30;77.00;100072.31;5007882;28;20583;-71
2022/01/16 00:04:06;;;;;;;67.40;25.43;;;;;;;-2.28;80.62;100122.13;5011501;28;20724;-69
2022/01/16 00:06:34;;;;;;;100.10;26.67;;;;;;;-2.61;82.62;100128.19;5017969;28;20413;-70
2022/01/16 00:09:01;;;;;;;71.07;24.77;;;;;;;-0.97;77.68;100087.03;5010431;28;20227;-71
2022/01/16 00:11:29;;;;;;;65.40;25.67;;;;;;;-1.84;76.68;100088.38;5017826;28;20422;-70
2022/01/16 00:13:56;;;;;;;75.27;24.10;;;;;;;-1.56;79.23;100136.56;5010754;28;20235;-69
2022/01/16 00:16:23;;;;;;;69.77;22.87;;;;;;;-2.76;80.27;100091.44;5006783;28;20219;-70
2022/01/16 00:18:52;;;;;;;68.73;26.23;;;;;;;-2.30;83.42;100161.41;5018923;28;20235;-69
2022/01/16 00:21:27;;;;;;;72.70;24.37;;;;;;;-2.84;82.66;100119.72;5011384;28;20227;-72
2022/01/16 00:23:55;;;;;;;66.70;24.27;;;;;;;-3.03;84.07;100121.56;5003694;28;20220;-72
2022/01/16 00:26:22;;;;;;;63.57;23.93;;;;;;;-2.95;83.50;100115.03;5015251;28;20218;-69
2022/01/16 00:28:51;;;;;;;59.23;22.43;;;;;;;-2.91;83.57;100118.34;5009847;28;20709;-71
2022/01/16 00:31:21;;;;;;;77.50;24.50;;;;;;;-2.27;81.49;100072.38;5013140;28;20225;-70
2022/01/16 00:33:48;;;;;;;67.87;25.10;;;;;;;-2.93;84.28;100097.53;5017987;28;20737;-67
2022/01/16 00:36:18;;;;;;;63.13;21.67;;;;;;;-3.09;84.97;100107.03;5015693;28;20220;-67
2022/01/16 00:38:50;;;;;;;55.77;20.97;;;;;;;-1.71;80.94;100067.63;5008298;28;20256;-65
2022/01/16 00:41:19;;;;;;;64.63;19.63;;;;;;;-3.40;84.05;100089.44;5009350;28;20500;-65
2022/01/16 00:43:50;;;;;;;62.57;20.40;;;;;;;-3.28;85.64;100120.13;5011128;28;20232;-66
2022/01/16 00:46:18;;;;;;;51.57;21.13;;;;;;;-2.63;83.85;100138.69;5008337;28;20647;-65
2022/01/16 00:48:45;;;;;;;73.40;23.00;;;;;;;-2.13;82.14;100102.19;5012604;28;20585;-66
2022/01/16 00:51:14;;;;;;;53.90;21.07;;;;;;;-3.48;85.18;100126.31;5006895;28;20586;-71
2022/01/16 00:53:43;;;;;;;42.90;21.73;;;;;;;-2.39;81.39;100107.00;5008910;28;20225;-71
2022/01/16 00:56:11;;;;;;;57.93;19.57;;;;;;;-2.31;80.96;100136.22;5016819;28;20574;-69
2022/01/16 00:58:39;;;;;;;48.17;21.10;;;;;;;-3.36;83.05;100133.56;5009633;28;20236;-72
2022/01/16 01:01:06;;;;;;;47.43;18.97;;;;;;;-3.60;83.92;100135.53;5011763;28;20318;-72
2022/01/16 01:03:33;;;;;;;48.03;19.60;;;;;;;-2.73;83.22;100176.66;5012513;28;20236;-73
2022/01/16 01:06:01;;;;;;;61.10;20.97;;;;;;;-2.97;81.81;100129.94;5018497;28;20221;-71
2022/01/16 01:08:29;;;;;;;66.90;19.93;;;;;;;-3.41;84.71;100150.34;5010222;28;20615;-70
2022/01/16 01:10:57;;;;;;;56.10;18.03;;;;;;;-3.70;84.92;100132.50;5011805;28;20235;-66
2022/01/16 01:13:54;;;;;;;39.23;18.97;;;;;;;-2.62;82.40;100149.97;5006973;28;20230;-66
2022/01/16 01:16:21;;;;;;;40.23;17.20;;;;;;;-3.69;84.15;100147.25;5012153;28;20247;-66
2022/01/16 01:18:48;;;;;;;50.33;18.93;;;;;;;-3.18;84.20;100175.34;5005613;28;20234;-65
2022/01/16 01:21:27;;;;;;;45.37;18.83;;;;;;;-2.84;82.77;100101.44;5009450;28;20629;-65
2022/01/16 01:23:55;;;;;;;43.97;20.43;;;;;;;-3.23;81.59;100046.88;5014348;28;20235;-66
2022/01/16 01:26:27;;;;;;;49.43;17.83;;;;;;;-3.49;83.06;100049.81;5012134;28;20221;-66
2022/01/16 01:28:54;;;;;;;75.13;19.17;;;;;;;-2.57;80.52;100028.66;5003155;28;20262;-66
2022/01/16 01:31:21;;;;;;;58.40;17.77;;;;;;;-4.07;84.79;100040.38;5007725;28;20224;-66
2022/01/16 01:33:48;;;;;;;51.17;20.40;;;;;;;-1.37;77.94;99974.13;5009620;28;20709;-66
2022/01/16 01:36:15;;;;;;;31.57;15.33;;;;;;;-4.13;83.71;100047.66;5005150;28;20226;-66
2022/01/16 01:38:42;;;;;;;44.37;18.47;;;;;;;-3.81;84.95;100107.84;5015336;28;20492;-66
2022/01/16 01:41:09;;;;;;;66.43;21.27;;;;;;;-2.87;81.96;100085.09;5006321;28;20236;-66
2022/01/16 01:51:42;;;;;;;57.50;18.87;;;;;;;-3.27;81.10;100127.88;5010073;28;20225;-67
2022/01/16 01:54:10;;;;;;;84.43;20.97;;;;;;;-3.42;82.83;100172.97;5010000;28;20237;-68
2022/01/16 01:56:38;;;;;;;61.97;19.27;;;;;;;-3.41;81.96;100132.06;5011484;28;20599;-68
2022/01/16 01:59:06;;;;;;;59.37;20.17;;;;;;;-2.94;78.54;100102.81;5005344;28;20587;-65
2022/01/16 02:01:34;;;;;;;77.73;19.27;;;;;;;-2.44;77.40;100081.13;5009866;28;20229;-67
2022/01/16 02:04:01;;;;;;;69.63;21.40;;;;;;;-3.71;81.87;100141.28;5011997;28;20232;-67
2022/01/16 02:06:30;;;;;;;67.70;19.47;;;;;;;-3.56;83.79;100194.47;5013574;28;20232;-68
2022/01/16 02:09:01;;;;;;;77.23;21.70;;;;;;;-2.45;81.71;100168.25;5018421;28;20220;-67
2022/01/16 02:11:31;;;;;;;50.87;20.37;;;;;;;-2.78;80.58;100183.88;5009028;28;20229;-67
2022/01/16 02:14:28;;;;;;;40.83;18.30;;;;;;;-1.10;75.10;100099.97;5001883;28;20232;-67
2022/01/16 02:28:19;;;;;;;99.90;21.73;;;;;;;-3.39;81.26;100175.44;5008808;28;20240;-66
2022/01/16 02:36:01;;;;;;;52.60;20.03;;;;;;;-1.19;75.73;100079.53;5009961;28;20270;-67
2022/01/16 02:38:28;;;;;;;74.53;20.33;;;;;;;-3.15;78.55;100121.22;5011761;28;20225;-67
2022/01/16 02:40:59;;;;;;;64.17;20.40;;;;;;;-2.12;77.32;100091.66;5008579;28;20225;-67
2022/01/16 02:43:33;;;;;;;46.87;18.83;;;;;;;-1.67;75.85;100073.50;5018509;28;20231;-67
2022/01/16 02:48:46;;;;;;;96.33;21.40;;;;;;;-2.79;77.06;100106.44;5033192;28;21224;-67
2022/01/16 02:51:22;;;;;;;69.73;19.83;;;;;;;-2.54;80.21;100153.88;5031838;28;20607;-67
2022/01/16 02:53:50;;;;;;;55.03;20.20;;;;;;;-2.04;76.03;100093.88;5028333;28;20230;-67
2022/01/16 02:56:18;;;;;;;68.90;22.17;;;;;;;-2.61;78.73;100138.63;5031929;28;20221;-67
2022/01/16 02:58:47;;;;;;;55.47;20.13;;;;;;;-1.94;77.38;100096.78;5025478;28;20232;-68
2022/01/16 03:01:15;;;;;;;71.77;20.83;;;;;;;-3.01;81.08;100161.47;5026729;28;21207;-67
2022/01/16 03:03:42;;;;;;;52.13;20.77;;;;;;;-2.30;77.94;100116.13;5023382;28;20235;-67
2022/01/16 03:06:10;;;;;;;76.70;24.03;;;;;;;-1.85;72.90;100025.72;5025563;28;20753;-67
2022/01/16 03:08:37;;;;;;;36.67;16.87;;;;;;;-1.44;73.12;100040.84;5024285;28;20228;-67
2022/01/16 03:13:32;;;;;;;55.17;20.90;;;;;;;-1.27;72.92;100051.19;5022109;28;20229;-67
2022/01/16 03:16:00;;;;;;;51.03;21.20;;;;;;;-0.97;71.56;100032.03;5025101;28;20251;-68
2022/01/16 03:23:43;;;;;;;51.87;22.70;;;;;;;-1.31;71.82;100036.59;5025579;28;20229;-67
2022/01/16 03:26:10;;;;;;;35.13;14.53;;;;;;;-1.58;72.95;100062.56;5023931;28;20228;-67
2022/01/16 03:28:37;;;;;;;51.30;23.17;;;;;;;-0.92;71.32;100043.06;5023200;28;20728;-67
2022/01/16 03:31:04;;;;;;;48.67;24.23;;;;;;;-0.72;70.32;100041.06;5024573;28;20227;-67
2022/01/16 03:33:31;;;;;;;40.77;20.67;;;;;;;-1.12;71.42;100038.13;5025310;28;20246;-67
2022/01/16 03:35:58;;;;;;;51.33;23.17;;;;;;;-0.85;71.33;100067.13;5023937;28;20232;-67
2022/01/16 03:38:25;;;;;;;50.53;22.70;;;;;;;-0.83;70.47;100049.53;5022634;28;20713;-67
2022/01/16 03:40:52;;;;;;;46.37;22.40;;;;;;;-0.78;69.90;100050.09;5028655;28;20712;-67
2022/01/16 03:43:18;;;;;;;53.70;22.43;;;;;;;-1.08;70.38;100050.97;5030146;28;20231;-67
2022/01/16 03:45:47;;;;;;;38.60;18.80;;;;;;;-1.56;72.84;100091.25;5026022;28;20228;-67
2022/01/16 03:48:15;;;;;;;23.83;12.30;;;;;;;-1.75;72.05;100086.19;5028386;28;20220;-67
2022/01/16 03:50:42;;;;;;;44.17;21.97;;;;;;;-0.99;70.59;100088.06;5030975;28;20224;-67
2022/01/16 03:53:09;;;;;;;47.87;22.10;;;;;;;-0.60;69.58;100099.75;5031458;28;20232;-67
2022/01/16 03:55:37;;;;;;;47.53;21.33;;;;;;;-0.63;69.39;100076.34;5028564;28;20780;-67
2022/01/16 03:58:04;;;;;;;49.37;20.37;;;;;;;-1.33;72.07;100130.06;5028861;28;20788;-67
2022/01/16 04:00:32;;;;;;;51.23;19.17;;;;;;;-3.14;79.03;100184.69;5025669;28;20221;-67
2022/01/16 04:02:59;;;;;;;58.43;18.53;;;;;;;-1.23;71.51;100104.22;5027508;28;20220;-67
2022/01/16 04:05:26;;;;;;;44.27;20.43;;;;;;;-2.24;75.11;100157.63;5027702;28;20233;-67
2022/01/16 04:07:53;;;;;;;39.87;17.67;;;;;;;-1.41;72.64;100135.72;5026037;28;20611;-67
2022/01/16 04:10:21;;;;;;;49.87;18.70;;;;;;;-2.03;73.21;100135.56;5032317;28;20673;-67
2022/01/16 04:12:49;;;;;;;42.57;18.87;;;;;;;-0.94;70.45;100110.41;5024838;28;20224;-67
2022/01/16 04:17:45;;;;;;;37.63;18.83;;;;;;;-2.15;75.38;100175.44;5026436;28;20430;-67
2022/01/16 04:20:16;;;;;;;43.97;19.57;;;;;;;-1.24;71.58;100124.28;5027534;28;20239;-67
2022/01/16 04:22:45;;;;;;;36.80;17.50;;;;;;;-1.37;71.51;100112.81;5035470;28;20227;-67
2022/01/16 04:25:13;;;;;;;48.43;19.83;;;;;;;-1.18;70.45;100109.16;5037529;28;20227;-67
2022/01/16 04:27:41;;;;;;;50.50;20.70;;;;;;;-1.46;70.25;100097.66;5038997;28;20231;-67
2022/01/16 04:30:09;;;;;;;39.27;16.10;;;;;;;-1.51;72.14;100125.84;5028170;28;20227;-68
2022/01/16 04:32:36;;;;;;;52.63;19.97;;;;;;;-1.01;70.10;100116.09;5029155;28;20224;-67
2022/01/16 04:35:05;;;;;;;46.40;20.77;;;;;;;-1.49;71.56;100116.13;5028103;28;20527;-67
2022/01/16 04:37:32;;;;;;;58.10;21.57;;;;;;;-2.55;75.64;100156.56;5028866;28;20239;-67
2022/01/16 04:40:01;;;;;;;52.20;20.43;;;;;;;-1.46;73.69;100147.38;5028989;28;20225;-67
2022/01/16 04:45:14;;;;;;;48.37;18.60;;;;;;;-1.22;71.68;100111.13;5027892;28;20825;-67
2022/01/16 04:47:42;;;;;;;56.40;22.90;;;;;;;-0.73;69.97;100116.19;5028994;28;20240;-68
2022/01/16 04:50:13;;;;;;;52.70;19.50;;;;;;;-1.86;73.48;100124.22;5029317;28;20232;-67
2022/01/16 04:52:42;;;;;;;37.40;18.23;;;;;;;-1.36;71.52;100096.19;5028879;28;20229;-67
2022/01/16 04:55:12;;;;;;;45.87;20.87;;;;;;;-1.88;73.19;100115.63;5041088;28;20228;-67
2022/01/16 04:57:39;;;;;;;58.40;20.93;;;;;;;-1.87;71.48;100069.41;5048158;28;20238;-67
2022/01/16 05:00:10;;;;;;;55.90;22.77;;;;;;;-0.99;71.20;100107.22;5046903;28;20215;-68
2022/01/16 05:02:37;;;;;;;72.23;22.97;;;;;;;-1.02;70.23;100077.75;5028658;28;20243;-67
2022/01/16 05:05:04;;;;;;;88.30;22.97;;;;;;;-3.11;80.29;100180.19;5028623;28;20224;-67
2022/01/16 05:07:31;;;;;;;82.83;21.07;;;;;;;-4.20;82.34;100120.03;5028314;28;20730;-67
2022/01/16 05:09:58;;;;;;;54.83;19.80;;;;;;;-3.30;81.16;100201.09;5028614;28;20248;-67
2022/01/16 05:12:32;;;;;;;72.97;19.57;;;;;;;-3.52;78.15;100136.03;5028118;28;20231;-67
2022/01/16 05:17:46;;;;;;;53.57;20.23;;;;;;;-3.21;75.78;100124.13;5028657;28;20232;-67
2022/01/16 05:20:13;;;;;;;29.20;15.20;;;;;;;-2.76;78.74;100192.47;5028440;28;20241;-67
2022/01/16 05:22:40;;;;;;;78.80;20.27;;;;;;;-3.68;77.30;100133.31;5028347;28;20234;-67
2022/01/16 05:25:08;;;;;;;41.47;18.60;;;;;;;-1.79;74.45;100143.03;5027495;28;20232;-67
2022/01/16 05:27:35;;;;;;;50.87;20.07;;;;;;;-2.10;75.30;100156.91;5028290;28;20340;-67
2022/01/16 05:30:04;;;;;;;49.07;17.93;;;;;;;-4.60;82.48;100125.22;5028054;28;20228;-67
2022/01/16 05:32:31;;;;;;;36.23;15.37;;;;;;;-2.88;80.87;100237.44;5027863;28;20229;-67
2022/01/16 05:34:58;;;;;;;55.53;19.33;;;;;;;-2.49;78.31;100207.69;5027195;28;20230;-67
2022/01/16 05:37:25;;;;;;;42.87;17.07;;;;;;;-2.43;78.07;100197.78;5027471;28;20341;-67
2022/01/16 05:39:52;;;;;;;49.77;18.50;;;;;;;-2.36;75.92;100169.56;5028218;28;20223;-67
2022/01/16 05:42:19;;;;;;;49.90;20.43;;;;;;;-3.78;78.50;100152.91;5027857;28;20221;-67
2022/01/16 05:44:46;;;;;;;47.60;21.03;;;;;;;-2.86;77.33;100167.72;5027962;28;20239;-67
2022/01/16 05:47:14;;;;;;;41.93;19.77;;;;;;;-3.20;79.89;100198.91;5026701;28;20447;-67
2022/01/16 05:49:41;;;;;;;43.83;19.10;;;;;;;-2.60;77.13;100164.66;5027894;28;20241;-68
2022/01/16 05:52:08;;;;;;;51.53;20.87;;;;;;;-3.18;79.13;100204.88;5027789;28;20255;-67
2022/01/16 05:54:35;;;;;;;55.97;21.83;;;;;;;-2.86;78.49;100201.66;5027291;28;20231;-67
2022/01/16 05:57:03;;;;;;;43.90;18.30;;;;;;;-2.05;74.83;100154.91;5027821;28;20762;-67
2022/01/16 05:59:30;;;;;;;73.37;21.03;;;;;;;-4.05;79.99;100186.22;5027559;28;20223;-67
2022/01/16 06:01:56;;;;;;;38.67;16.37;;;;;;;-4.77;81.21;100099.06;5027651;28;20231;-67
2022/01/16 06:04:24;;;;;;;32.93;18.07;;;;;;;-2.34;77.28;100184.22;5026463;28;20217;-67
2022/01/16 06:06:51;;;;;;;42.93;18.77;;;;;;;-2.87;76.51;100166.03;5027353;28;20228;-67
2022/01/16 06:09:17;;;;;;;47.40;18.87;;;;;;;-3.36;80.64;100230.09;5026587;28;20251;-67
2022/01/16 06:11:44;;;;;;;36.00;19.20;;;;;;;-2.54;76.63;100180.00;5027370;28;20229;-67
2022/01/16 06:14:11;;;;;;;38.97;20.90;;;;;;;-2.84;78.57;100202.44;5026925;28;20229;-67
2022/01/16 06:16:38;;;;;;;50.50;19.47;;;;;;;-3.60;79.93;100219.00;5026974;28;20221;-67
2022/01/16 06:19:05;;;;;;;41.77;18.83;;;;;;;-2.44;77.11;100201.28;5026740;28;20213;-67
2022/01/16 06:21:32;;;;;;;29.87;14.73;;;;;;;-4.10;80.09;100188.19;5026847;28;20232;-67
2022/01/16 06:24:00;;;;;;;45.53;19.30;;;;;;;-3.64;82.95;100287.84;5026824;28;20684;-67
2022/01/16 06:26:27;;;;;;;42.93;22.13;;;;;;;-2.63;77.81;100226.63;5026782;28;20227;-67
2022/01/16 06:28:54;;;;;;;33.70;18.70;;;;;;;-2.34;77.61;100233.03;5026744;28;20704;-67
2022/01/16 06:31:21;;;;;;;42.20;20.43;;;;;;;-2.60;79.09;100240.41;5025492;28;20586;-67
2022/01/16 06:33:48;;;;;;;50.50;22.00;;;;;;;-2.33;74.76;100177.22;5026478;28;20227;-67
2022/01/16 06:36:14;;;;;;;45.87;23.37;;;;;;;-2.45;77.33;100225.72;5027165;28;20239;-67
2022/01/16 06:38:41;;;;;;;50.57;24.60;;;;;;;-1.69;74.85;100196.56;5026456;28;20230;-67
2022/01/16 06:41:09;;;;;;;40.90;22.07;;;;;;;-3.59;80.25;100256.38;5026634;28;20238;-67
2022/01/16 06:43:36;;;;;;;44.60;21.70;;;;;;;-2.61;78.95;100246.53;5026176;28;20225;-67
2022/01/16 06:46:03;;;;;;;42.47;20.37;;;;;;;-3.18;77.14;100230.97;5026656;28;20231;-67
2022/01/16 06:48:31;;;;;;;41.70;20.90;;;;;;;-3.49;81.76;100294.16;5026220;28;20216;-68
2022/01/16 06:50:58;;;;;;;42.27;19.40;;;;;;;-1.92;75.47;100208.25;5026587;28;20220;-67
2022/01/16 06:53:25;;;;;;;44.50;22.97;;;;;;;-2.41;75.56;100189.88;5025872;28;20228;-67
2022/01/16 06:55:51;;;;;;;40.83;19.80;;;;;;;-3.06;80.13;100268.72;5026438;28;20226;-67
2022/01/16 06:58:18;;;;;;;42.90;18.90;;;;;;;-2.56;77.66;100238.50;5026594;28;20232;-67
2022/01/16 07:00:47;;;;;;;45.03;20.87;;;;;;;-3.65;77.06;100190.50;5026148;28;20228;-67
2022/01/16 07:03:14;;;;;;;44.93;22.87;;;;;;;-3.29;79.84;100273.25;5025708;28;21743;-67
2022/01/16 07:05:45;;;;;;;45.27;23.30;;;;;;;-1.49;73.75;100210.34;5026544;28;20229;-67
2022/01/16 07:08:12;;;;;;;57.80;24.30;;;;;;;-2.59;77.39;100259.53;5026734;28;20228;-67
2022/01/16 07:10:39;;;;;;;56.27;24.67;;;;;;;-2.61;74.86;100216.97;5026078;28;20616;-67
2022/01/16 07:13:06;;;;;;;62.60;25.83;;;;;;;-1.97;74.65;100225.94;5025577;28;20224;-67
2022/01/16 07:15:33;;;;;;;59.70;27.07;;;;;;;-1.79;74.54;100237.19;5024190;28;20425;-67
2022/01/16 07:18:00;;;;;;;63.77;26.07;;;;;;;-1.48;72.24;100215.50;5026316;28;20231;-67
2022/01/16 07:20:27;;;;;;;52.93;23.37;;;;;;;-1.63;73.64;100229.41;5029984;28;20224;-67
2022/01/16 07:22:54;;;;;;;56.17;25.03;;;;;;;-1.53;73.78;100243.69;5029623;28;20224;-67
2022/01/16 07:25:21;;;;;;;56.57;26.27;;;;;;;-1.99;76.14;100285.31;5028527;28;20224;-67
2022/01/16 07:27:48;;;;;;;57.27;27.50;;;;;;;-1.65;71.92;100229.47;5029709;28;20334;-67
2022/01/16 07:30:15;;;;;;;54.90;25.40;;;;;;;-1.67;74.38;100264.47;5030432;28;20231;-67
2022/01/16 07:32:44;;;;;;;58.30;25.20;;;;;;;-1.04;71.35;100254.13;5030467;28;20235;-68
2022/01/16 07:35:11;;;;;;;44.53;22.17;;;;;;;-1.37;72.76;100266.41;5029542;28;20228;-67
2022/01/16 07:37:58;;;;;;;59.27;25.00;;;;;;;-1.08;71.71;100257.81;5030679;28;20240;-67
2022/01/16 07:40:31;;;;;;;64.87;28.43;;;;;;;-1.38;73.65;100285.66;5029816;28;20220;-67
2022/01/16 07:42:59;;;;;;;58.13;27.03;;;;;;;-1.16;72.17;100290.59;5029614;28;20235;-67
2022/01/16 07:45:26;;;;;;;54.40;27.70;;;;;;;-2.43;77.71;100340.59;5029605;28;20589;-67
2022/01/16 07:47:53;;;;;;;50.83;22.93;;;;;;;-1.40;73.83;100288.38;5030135;28;20245;-67
2022/01/16 07:50:21;;;;;;;58.83;26.83;;;;;;;-3.34;79.30;100319.56;5029663;28;20299;-68
2022/01/16 07:52:48;;;;;;;47.83;22.07;;;;;;;-1.45;73.60;100291.22;5028870;28;20225;-67
2022/01/16 07:55:16;;;;;;;65.87;27.93;;;;;;;-1.49;74.61;100302.75;5028456;28;20230;-67
2022/01/16 07:57:43;;;;;;;47.37;22.07;;;;;;;-1.05;72.64;100301.31;5029771;28;20252;-67
2022/01/16 08:00:29;;;;;;;61.00;25.17;;;;;;;-2.84;76.63;100307.69;5029410;28;20228;-68
2022/01/16 08:02:57;;;;;;;49.03;20.37;;;;;;;-1.89;75.52;100328.38;5028834;28;20229;-67
2022/01/16 08:05:25;;;;;;;63.57;25.73;;;;;;;-2.85;78.17;100353.03;5029280;28;20748;-67
2022/01/16 08:07:52;;;;;;;59.70;25.87;;;;;;;-2.25;77.48;100351.94;5029508;28;20712;-67
2022/01/16 08:10:19;;;;;;;54.43;25.40;;;;;;;-2.79;77.81;100346.66;5029617;28;20225;-67
2022/01/16 08:12:46;;;;;;;54.00;24.20;;;;;;;-1.87;76.34;100333.53;5028981;28;20220;-68
2022/01/16 08:15:13;;;;;;;58.67;26.37;;;;;;;-1.83;74.84;100316.75;5027744;28;20229;-68
2022/01/16 08:17:40;;;;;;;55.97;27.17;;;;;;;-1.76;73.72;100298.97;5029288;28;20241;-67
2022/01/16 08:20:09;;;;;;;56.93;26.50;;;;;;;-1.72;75.32;100330.13;5029223;28;20221;-67
2022/01/16 08:22:36;;;;;;;49.10;23.23;;;;;;;-2.52;77.36;100350.56;5029626;28;20448;-67
2022/01/16 08:25:05;;;;;;;54.17;24.97;;;;;;;-2.37;78.61;100364.69;5028120;28;20230;-67
2022/01/16 08:27:32;;;;;;;52.93;25.10;;;;;;;-3.00;79.81;100366.78;5029180;28;20616;-67
2022/01/16 08:30:04;;;;;;;52.90;24.63;;;;;;;-3.05;80.17;100367.00;5028817;28;20234;-67
2022/01/16 08:32:31;;;;;;;37.83;19.43;;;;;;;-4.45;85.07;100352.88;5028559;28;20616;-67
2022/01/16 08:34:59;;;;;;;49.60;23.40;;;;;;;-2.78;82.13;100398.81;5028229;28;20225;-67
2022/01/16 08:37:26;;;;;;;46.73;21.83;;;;;;;-3.81;82.32;100382.44;5027619;28;20228;-67
2022/01/16 08:39:53;;;;;;;43.67;21.53;;;;;;;-1.62;76.97;100344.44;5029169;28;20226;-67
2022/01/16 08:42:20;;;;;;;49.20;24.10;;;;;;;-0.76;72.40;100330.31;5028848;28;20227;-67
2022/01/16 08:44:49;;;;;;;55.80;25.17;;;;;;;-2.17;74.63;100329.75;5028269;28;20219;-67
2022/01/16 08:47:17;;;;;;;52.93;22.83;;;;;;;-2.54;77.48;100382.94;5028977;28;20232;-67
2022/01/16 08:49:44;;;;;;;48.10;24.03;;;;;;;-2.87;78.45;100377.50;5028936;28;20227;-67
2022/01/16 08:52:13;;;;;;;49.37;23.80;;;;;;;-2.27;74.62;100318.03;5028929;28;20220;-67
2022/01/16 08:54:40;;;;;;;47.30;21.70;;;;;;;-2.95;78.77;100377.88;5028217;28;20704;-67
2022/01/16 08:57:07;;;;;;;51.07;24.07;;;;;;;-1.84;77.98;100389.13;5028255;28;20240;-67
2022/01/16 08:59:34;;;;;;;51.10;23.33;;;;;;;-0.93;74.05;100370.53;5026947;28;20739;-67
2022/01/16 09:02:01;;;;;;;55.67;25.90;;;;;;;-2.43;73.87;100324.94;5028931;28;20224;-67
2022/01/16 09:04:28;;;;;;;47.90;24.13;;;;;;;-2.85;77.37;100371.31;5028041;28;20308;-67
2022/01/16 09:06:55;;;;;;;54.77;30.10;;;;;;;-3.05;79.42;100410.53;5028274;28;20232;-67
2022/01/16 09:09:22;;;;;;;59.83;31.30;;;;;;;-2.09;78.44;100406.94;5028234;28;20232;-67
2022/01/16 09:11:49;;;;;;;47.33;25.43;;;;;;;-3.24;81.19;100424.38;5019047;28;20217;-67
2022/01/16 09:14:18;;;;;;;46.17;26.70;;;;;;;-2.59;79.50;100397.97;5024020;28;20235;-67
2022/01/16 09:16:45;;;;;;;51.93;28.93;;;;;;;-3.25;80.42;100406.19;5028312;28;20780;-67
2022/01/16 09:19:12;;;;;;;80.47;39.30;;;;;;;-1.99;77.05;100371.59;5028150;28;20228;-67
2022/01/16 09:21:39;;;;;;;53.63;25.87;;;;;;;-2.96;80.46;100426.59;5027975;28;20225;-67
2022/01/16 09:24:06;;;;;;;54.10;27.33;;;;;;;-1.23;75.75;100389.56;5026578;28;20230;-67
2022/01/16 09:26:33;;;;;;;58.50;28.23;;;;;;;-1.81;78.07;100414.28;5027312;28;20715;-67
2022/01/16 09:29:00;;;;;;;57.90;26.87;;;;;;;-1.26;75.21;100390.53;5026183;28;20228;-67
2022/01/16 09:31:27;;;;;;;51.30;27.43;;;;;;;-1.79;76.10;100404.59;5026551;28;20232;-67
2022/01/16 09:33:54;;;;;;;54.17;26.57;;;;;;;-1.05;73.87;100393.81;5028251;28;20222;-67
2022/01/16 09:36:22;;;;;;;49.73;27.07;;;;;;;-1.84;77.17;100424.88;5027871;28;20607;-67
2022/01/16 09:38:49;;;;;;;58.73;27.87;;;;;;;-2.66;78.86;100439.19;5017542;28;20621;-67
2022/01/16 09:41:16;;;;;;;63.43;30.40;;;;;;;-0.92;74.17;100416.78;5027747;28;20235;-67
2022/01/16 09:43:43;;;;;;;56.93;28.37;;;;;;;-1.71;76.78;100431.22;5026523;28;20610;-67
2022/01/16 09:46:10;;;;;;;62.07;30.50;;;;;;;-1.65;75.00;100420.44;5027999;28;20313;-67
2022/01/16 09:48:37;;;;;;;67.83;31.60;;;;;;;-1.57;75.07;100414.84;5027352;28;20228;-68
2022/01/16 09:51:04;;;;;;;51.83;26.43;;;;;;;-2.29;77.08;100440.13;5027762;28;20573;-67
2022/01/16 09:53:31;;;;;;;58.97;30.70;;;;;;;-0.99;74.65;100441.59;5026503;28;20240;-67
2022/01/16 09:55:58;;;;;;;57.57;28.90;;;;;;;-1.13;75.04;100432.66;5027806;28;20238;-67
2022/01/16 09:58:25;;;;;;;48.40;26.70;;;;;;;-0.96;74.72;100446.69;5027404;28;20233;-67
2022/01/16 10:00:53;;;;;;;54.63;27.57;;;;;;;-1.55;74.43;100404.28;5027332;28;20220;-67
2022/01/16 10:03:35;;;;;;;58.40;30.30;;;;;;;-0.80;73.11;100429.19;5027075;28;20241;-67
2022/01/16 10:06:10;;;;;;;60.03;30.30;;;;;;;-0.54;71.92;100429.56;5026955;28;20236;-72
2022/01/16 10:08:39;;;;;;;52.07;27.63;;;;;;;-0.83;72.88;100431.97;5025843;28;20243;-70
2022/01/16 10:11:22;;;;;;;68.63;33.23;;;;;;;-0.79;73.05;100438.75;5026446;28;20233;-67
2022/01/16 10:14:02;;;;;;;33.23;16.37;;;;;;;-1.13;73.08;100424.81;5018871;28;20223;-66
2022/01/16 10:16:33;;;;;;;47.60;27.13;;;;;;;-0.50;72.68;100454.69;5034549;28;20922;-67
2022/01/16 10:19:00;;;;;;;42.03;21.53;;;;;;;-0.81;72.97;100432.78;5026555;28;20735;-66
2022/01/16 10:21:36;;;;;;;53.90;29.50;;;;;;;-0.88;74.58;100468.06;5026139;28;20221;-66
2022/01/16 10:24:26;;;;;;;58.43;29.13;;;;;;;-0.19;71.72;100460.88;5034998;28;20224;-66
2022/01/16 10:27:08;;;;;;;49.33;27.13;;;;;;;-0.42;72.12;100457.75;5026199;28;20240;-66
2022/01/16 10:29:40;;;;;;;53.97;27.57;;;;;;;-0.70;72.21;100450.53;5026001;28;20231;-66
2022/01/16 10:32:24;;;;;;;60.17;30.10;;;;;;;-0.55;72.49;100469.81;5025297;28;20225;-66
2022/01/16 10:34:53;;;;;;;56.03;29.97;;;;;;;-1.53;74.68;100454.78;5021592;28;20711;-67
2022/01/16 10:37:26;;;;;;;61.67;29.47;;;;;;;-1.34;76.65;100502.66;5022389;28;20226;-66
2022/01/16 10:40:00;;;;;;;57.27;30.73;;;;;;;-1.43;72.97;100427.22;5023966;28;20227;-66
2022/01/16 10:42:29;;;;;;;50.80;27.87;;;;;;;-1.90;79.19;100524.59;5025019;28;20222;-67
2022/01/16 10:45:02;;;;;;;61.13;31.03;;;;;;;-1.47;73.67;100439.63;5030739;28;20229;-66
2022/01/16 10:47:32;;;;;;;55.27;31.20;;;;;;;-0.79;74.86;100490.31;5033037;28;20234;-66
2022/01/16 10:50:04;;;;;;;57.37;28.63;;;;;;;-1.75;74.62;100444.53;5030814;28;20221;-66
2022/01/16 10:52:31;;;;;;;55.00;29.07;;;;;;;-2.35;79.22;100509.19;5031151;28;20738;-66
2022/01/16 10:55:08;;;;;;;40.03;23.40;;;;;;;-1.57;76.89;100482.88;5029280;28;20232;-66
2022/01/16 10:57:35;;;;;;;50.07;29.27;;;;;;;-1.66;78.70;100520.78;5030272;28;20724;-66
2022/01/16 11:00:17;;;;;;;52.73;28.70;;;;;;;-2.33;77.51;100469.91;5025038;28;20235;-66
2022/01/16 11:03:53;;;;;;;51.77;27.27;;;;;;;-2.21;79.94;100487.66;5056819;28;20592;-65
2022/01/16 11:06:23;;;;;;;52.93;27.87;;;;;;;-1.86;77.53;100464.19;5040774;28;20232;-65
2022/01/16 11:08:52;;;;;;;54.70;29.17;;;;;;;-2.84;82.37;100515.75;5041446;28;20228;-65
2022/01/16 11:11:22;;;;;;;51.33;26.93;;;;;;;-2.06;80.24;100504.38;5043062;28;20235;-66
2022/01/16 11:13:50;;;;;;;59.13;29.50;;;;;;;-2.25;79.41;100470.41;5027267;28;20583;-65
2022/01/16 11:16:18;;;;;;;46.83;26.43;;;;;;;-3.02;81.56;100481.72;5037067;28;20242;-65
2022/01/16 11:18:49;;;;;;;48.67;25.73;;;;;;;-2.63;82.65;100504.38;5042105;28;20266;-66
2022/01/16 11:21:31;;;;;;;49.83;25.37;;;;;;;-2.85;81.67;100482.72;5037393;28;20798;-65
2022/01/16 11:24:12;;;;;;;38.10;23.10;;;;;;;-2.91;79.59;100468.19;5020319;28;20602;-65
2022/01/16 11:26:39;;;;;;;38.93;23.53;;;;;;;-3.33;83.39;100506.47;5022090;28;20230;-65
2022/01/16 11:29:07;;;;;;;52.63;26.93;;;;;;;-2.78;83.46;100521.56;5021673;28;20229;-65
2022/01/16 11:31:34;;;;;;;59.53;27.63;;;;;;;-2.79;79.36;100446.72;5023785;28;20222;-65
2022/01/16 11:34:01;;;;;;;50.03;27.63;;;;;;;-2.46;80.62;100476.66;5021217;28;20228;-66
2022/01/16 11:36:28;;;;;;;43.20;24.33;;;;;;;-3.17;83.74;100514.53;5021384;28;20241;-65
2022/01/16 11:39:03;;;;;;;42.30;22.47;;;;;;;-3.30;84.11;100516.78;5020938;28;20228;-65
2022/01/16 11:41:34;;;;;;;48.73;27.03;;;;;;;-2.28;81.64;100483.63;5027677;28;20217;-71
2022/01/16 11:44:04;;;;;;;42.80;24.23;;;;;;;-2.77;84.37;100515.44;5040432;28;20220;-70
2022/01/16 11:46:34;;;;;;;47.03;25.73;;;;;;;-2.14;82.76;100488.22;5042053;28;20231;-65
2022/01/16 11:49:05;;;;;;;42.93;24.97;;;;;;;-1.84;81.52;100470.22;5041167;28;20220;-65
2022/01/16 11:51:32;;;;;;;49.90;26.53;;;;;;;-1.75;80.74;100468.06;5039956;28;20799;-66
2022/01/16 11:54:02;;;;;;;49.47;28.63;;;;;;;-2.05;81.69;100473.84;5039941;28;20224;-65
2022/01/16 11:56:38;;;;;;;53.40;27.57;;;;;;;-2.27;77.76;100427.81;5029699;28;20236;-65
2022/01/16 11:59:24;;;;;;;46.03;26.10;;;;;;;-1.13;77.64;100453.59;5018531;28;20217;-65
2022/01/16 12:02:07;;;;;;;47.37;26.37;;;;;;;-2.13;78.05;100445.44;5020265;28;20225;-65